Bf Esperanza — V2BR8 — position and weather

sailwx.info

Track history (hours):
 
Tides and Currents Weather Stations Pressure Air Temp Water Temp Dewpoint Dewpoint Depression Visibility Wind Speed Wind Dir Waves Ship Positions

Bf Esperanza

Last reported at 2016-Aug-24 06:33 UTC. Time now 2016-Aug-27 06:22 UTC.
Position N 35°58' W 005°07'.

Length 135 m; draft 8.7 m.

Type: Ship (hazmat cat A). MMSI: 304907000.

Date/timePositionNaut miles runAvg speedWind from/ knotsBaromVisibWave heightAir tempDewpointWater temp
2016-Aug-24 06:33N 35°58' W 005°07'18 7.9
2016-Aug-24 04:15N 36°08' W 005°25'0 0.0
2016-Aug-24 01:32N 36°08' W 005°25'0 0.0
2016-Aug-23 16:32N 36°08' W 005°25'0 0.0
2016-Aug-23 15:31N 36°08' W 005°25'0 0.0
2016-Aug-23 14:33N 36°08' W 005°25'3 2.8
2016-Aug-23 13:32N 36°10' W 005°23'0 0.1
2016-Aug-23 12:34N 36°10' W 005°23'0 0.0
2016-Aug-23 11:33N 36°09' W 005°23'2 1.9
2016-Aug-23 10:34N 36°08' W 005°24'2 1.8
2016-Aug-23 09:33N 36°06' W 005°24'3 3.3
2016-Aug-23 08:34N 36°04' W 005°21'12 1.2
2016-Aug-22 22:33N 36°12' W 005°10'1414.0
2016-Aug-22 21:33N 36°03' W 005°23'11 0.7
2016-Aug-22 05:33N 35°55' W 005°32'0 0.3
2016-Aug-22 04:32N 35°55' W 005°32'1 0.9
2016-Aug-22 03:31N 35°55' W 005°33'0 0.4
2016-Aug-22 02:33N 35°54' W 005°34'1 0.6
2016-Aug-22 01:33N 35°54' W 005°33'3 2.1
2016-Aug-22 00:11N 35°56' W 005°30'4 5.7
2016-Aug-21 23:33N 35°59' W 005°28'1110.0
2016-Aug-21 22:26N 36°03' W 005°15'  
2016-Aug-17 19:16N 35°52' W 000°14'1 1.7
2016-Aug-17 18:32N 35°53' W 000°14'4 4.0
2016-Aug-17 17:33N 35°57' W 000°14'9 9.0
2016-Aug-17 16:33N 36°04' W 000°07'2 0.7
2016-Aug-17 13:33N 36°06' W 000°05'3 0.6
2016-Aug-17 08:27N 36°05' W 000°08'0 0.0
2016-Aug-17 07:20N 36°05' W 000°08'0 0.1
2016-Aug-17 03:04N 36°05' W 000°08'0 0.4
2016-Aug-17 02:33N 36°05' W 000°08'0 0.2
2016-Aug-17 01:29N 36°05' W 000°08'0 0.0
2016-Aug-17 00:31N 36°05' W 000°08'0 0.1
2016-Aug-16 23:33N 36°05' W 000°08'0 0.2
2016-Aug-16 22:33N 36°05' W 000°09'0 0.1
2016-Aug-16 21:33N 36°05' W 000°09'0 0.1
2016-Aug-16 20:33N 36°05' W 000°09'1 0.5
2016-Aug-16 19:18N 36°04' W 000°08'5 4.0
2016-Aug-16 18:09N 35°60' W 000°10'1313.8
2016-Aug-16 17:12N 36°04' W 000°26'1514.7
2016-Aug-16 16:12N 36°02' W 000°44'51 2.0
2016-Aug-15 14:26N 35°33' W 001°36'1915.4
2016-Aug-15 13:10N 35°51' W 001°25'2514.0
2016-Aug-15 11:24N 36°13' W 001°12'4114.4
2016-Aug-15 08:33N 36°50' W 000°49'1514.5
2016-Aug-15 07:32N 37°03' W 000°41'1715.1
2016-Aug-15 06:23N 37°19' W 000°31'2714.8
2016-Aug-15 04:33N 37°43' W 000°16'1614.5
2016-Aug-15 03:28N 37°57' W 000°07'1414.3
2016-Aug-15 02:30N 38°10' E 000°01'1414.5
2016-Aug-15 01:31N 38°22' E 000°09'1514.7
2016-Aug-15 00:31N 38°35' E 000°17'1414.5
2016-Aug-14 23:32N 38°48' E 000°27'1514.7
2016-Aug-14 22:33N 39°01' E 000°34'1514.3
2016-Aug-14 21:30N 39°13' E 000°45'3615.0
2016-Aug-14 19:06N 39°45' E 001°07'815.0
2016-Aug-14 18:33N 39°53' E 001°12'1514.8
2016-Aug-14 17:33N 40°05' E 001°21'1514.6
2016-Aug-14 16:33N 40°18' E 001°30'1515.0
2016-Aug-14 15:33N 40°32' E 001°39'1514.8
2016-Aug-14 14:33N 40°45' E 001°48'1515.1
2016-Aug-14 13:33N 40°58' E 001°58'1615.2
2016-Aug-14 12:31N 41°12' E 002°08'10 7.7
2016-Aug-14 11:16N 41°21' E 002°10'0 0.0
2016-Aug-14 10:22N 41°21' E 002°10'0 0.0
2016-Aug-14 07:21N 41°21' E 002°10'  
Track history (hours):
 
Tides and Currents Weather Stations Pressure Air Temp Water Temp Dewpoint Dewpoint Depression Visibility Wind Speed Wind Dir Waves Ship Positions

Bf Esperanza

Last reported at 2016-Aug-24 06:33 UTC. Time now 2016-Aug-27 06:22 UTC.
Position N 35°58' W 005°07'.

Length 135 m; draft 8.7 m.

Type: Ship (hazmat cat A). MMSI: 304907000.

Date/timePositionNaut miles runAvg speedWind from/ knotsBaromVisibWave heightAir tempDewpointWater temp
2016-Aug-24 06:33N 35°58' W 005°07'18 7.9
2016-Aug-24 04:15N 36°08' W 005°25'0 0.0
2016-Aug-24 01:32N 36°08' W 005°25'0 0.0
2016-Aug-23 16:32N 36°08' W 005°25'0 0.0
2016-Aug-23 15:31N 36°08' W 005°25'0 0.0
2016-Aug-23 14:33N 36°08' W 005°25'3 2.8
2016-Aug-23 13:32N 36°10' W 005°23'0 0.1
2016-Aug-23 12:34N 36°10' W 005°23'0 0.0
2016-Aug-23 11:33N 36°09' W 005°23'2 1.9
2016-Aug-23 10:34N 36°08' W 005°24'2 1.8
2016-Aug-23 09:33N 36°06' W 005°24'3 3.3
2016-Aug-23 08:34N 36°04' W 005°21'12 1.2
2016-Aug-22 22:33N 36°12' W 005°10'1414.0
2016-Aug-22 21:33N 36°03' W 005°23'11 0.7
2016-Aug-22 05:33N 35°55' W 005°32'0 0.3
2016-Aug-22 04:32N 35°55' W 005°32'1 0.9
2016-Aug-22 03:31N 35°55' W 005°33'0 0.4
2016-Aug-22 02:33N 35°54' W 005°34'1 0.6
2016-Aug-22 01:33N 35°54' W 005°33'3 2.1
2016-Aug-22 00:11N 35°56' W 005°30'4 5.7
2016-Aug-21 23:33N 35°59' W 005°28'1110.0
2016-Aug-21 22:26N 36°03' W 005°15'  
2016-Aug-17 19:16N 35°52' W 000°14'1 1.7
2016-Aug-17 18:32N 35°53' W 000°14'4 4.0
2016-Aug-17 17:33N 35°57' W 000°14'9 9.0
2016-Aug-17 16:33N 36°04' W 000°07'2 0.7
2016-Aug-17 13:33N 36°06' W 000°05'3 0.6
2016-Aug-17 08:27N 36°05' W 000°08'0 0.0
2016-Aug-17 07:20N 36°05' W 000°08'0 0.1
2016-Aug-17 03:04N 36°05' W 000°08'0 0.4
2016-Aug-17 02:33N 36°05' W 000°08'0 0.2
2016-Aug-17 01:29N 36°05' W 000°08'0 0.0
2016-Aug-17 00:31N 36°05' W 000°08'0 0.1
2016-Aug-16 23:33N 36°05' W 000°08'0 0.2
2016-Aug-16 22:33N 36°05' W 000°09'0 0.1
2016-Aug-16 21:33N 36°05' W 000°09'0 0.1
2016-Aug-16 20:33N 36°05' W 000°09'1 0.5
2016-Aug-16 19:18N 36°04' W 000°08'5 4.0
2016-Aug-16 18:09N 35°60' W 000°10'1313.8
2016-Aug-16 17:12N 36°04' W 000°26'1514.7
2016-Aug-16 16:12N 36°02' W 000°44'51 2.0
2016-Aug-15 14:26N 35°33' W 001°36'1915.4
2016-Aug-15 13:10N 35°51' W 001°25'2514.0
2016-Aug-15 11:24N 36°13' W 001°12'4114.4
2016-Aug-15 08:33N 36°50' W 000°49'1514.5
2016-Aug-15 07:32N 37°03' W 000°41'1715.1
2016-Aug-15 06:23N 37°19' W 000°31'2714.8
2016-Aug-15 04:33N 37°43' W 000°16'1614.5
2016-Aug-15 03:28N 37°57' W 000°07'1414.3
2016-Aug-15 02:30N 38°10' E 000°01'1414.5
2016-Aug-15 01:31N 38°22' E 000°09'1514.7
2016-Aug-15 00:31N 38°35' E 000°17'1414.5
2016-Aug-14 23:32N 38°48' E 000°27'1514.7
2016-Aug-14 22:33N 39°01' E 000°34'1514.3
2016-Aug-14 21:30N 39°13' E 000°45'3615.0
2016-Aug-14 19:06N 39°45' E 001°07'815.0
2016-Aug-14 18:33N 39°53' E 001°12'1514.8
2016-Aug-14 17:33N 40°05' E 001°21'1514.6
2016-Aug-14 16:33N 40°18' E 001°30'1515.0
2016-Aug-14 15:33N 40°32' E 001°39'1514.8
2016-Aug-14 14:33N 40°45' E 001°48'1515.1
2016-Aug-14 13:33N 40°58' E 001°58'1615.2
2016-Aug-14 12:31N 41°12' E 002°08'10 7.7
2016-Aug-14 11:16N 41°21' E 002°10'0 0.0
2016-Aug-14 10:22N 41°21' E 002°10'0 0.0
2016-Aug-14 07:21N 41°21' E 002°10'  

Dump ship's entire track history